Millenium Air

Millenium Air Since 1998



 METAR AND TAF INFORMATION

Deprecated: The each() function is deprecated. This message will be suppressed on further calls in /var/www/virtual/milleniumair.it/htdocs/vam/helpers/get_metar.php on line 20
METAR FOR LICR
ADDS - METARS form results

(0157 UTC 23 September 2021)
Data provider http://aviationweather.gov/metar/data/
 
METAR text: LICR 230150Z AUTO 04005KT 9999 FEW024/// 21/16 Q1017
Conditions at: LICR (REGGIO CALABRIA , IT) observed 0150 UTC 23 September 2021
Temperature: 21.0°C (70°F)
Dewpoint: 16.0°C (61°F) [RH = 73%]
Pressure (altimeter): 30.03 inches Hg (1017.0 mb)
Winds: from the NE (40 degrees) at 6 MPH (5 knots; 2.6 m/s)
Visibility: 6 or more miles (10+ km)
Ceiling: at least 12,000 feet AGL
Clouds: few clouds at 2400 feet AGL
Weather: no significant weather observed at this time

METAR text: LICR 230120Z AUTO 03003KT 9999 FEW047/// 21/16 Q1017
Conditions at: LICR (REGGIO CALABRIA , IT) observed 0120 UTC 23 September 2021
Temperature: 21.0°C (70°F)
Dewpoint: 16.0°C (61°F) [RH = 73%]
Pressure (altimeter): 30.03 inches Hg (1017.0 mb)
Winds: from the NNE (30 degrees) at 3 MPH (3 knots; 1.5 m/s)
Visibility: 6 or more miles (10+ km)
Ceiling: at least 12,000 feet AGL
Clouds: few clouds at 4700 feet AGL
Weather: no significant weather observed at this time

Forecast for: LICR (REGGIO CALABRIA , IT)
Text: TAF LICR 222300Z 2300/2324 VRB05KT 9999 SCT030
Forecast period: 0000 to 0600 UTC 23 September 2021
Forecast type: FROM: standard forecast or significant change
Winds: variable direction winds at 6 MPH (5 knots; 2.6 m/s)
Visibility: 6 or more miles (10+ km)
Ceiling: at least 12,000 feet AGL
Clouds: scattered clouds at 3000 feet AGL
Weather: no significant weather forecast for this period
Text: BECMG 2306/2308 20010KT
Forecast period: 0600 UTC 23 September 2021 to 0000 UTC 24 September 2021
Forecast type: BECOMING: Conditions expected to become as follows by 0800 UTC 23 September 2021
Winds: from the SSW (200 degrees) at 12 MPH (10 knots; 5.1 m/s)
Visibility: 6 or more miles (10+ km)
Ceiling: at least 12,000 feet AGL
Clouds: scattered clouds at 3000 feet AGL
Weather: no significant weather forecast for this period

 AIRPORT MAP

 RUNWAY INFORMATION
Runway 11 Runway length 5574 ft Runway width 148 ft
Runway elevation 38 ft Runway displaced threshold 0 ft Runway heading 113
Runway 29 Runway length 5574 ft Runway width 148 ft
Runway elevation 43 ft Runway displaced threshold 0 ft Runway heading 293
Runway 15 Runway length 6549 ft Runway width 148 ft
Runway elevation 84 ft Runway displaced threshold 840 ft Runway heading 153
Runway 33 Runway length 6549 ft Runway width 148 ft
Runway elevation 34 ft Runway displaced threshold 164 ft Runway heading 333

 AIRPORT FREQUENCIES
Type APP Name APP Frequency 120.275 MHZ
Type TWR Name TWR Frequency 118.25 MHZ

 AIRPORT NEAR NAVIGATION AIDS
Type VOR-DME Name Reggio Calabria Frequency 111000 KHZ
Type NDB Name Reggio Calabria Frequency 325 KHZ